createdAt,value
2023-01-17T00:02:03.406Z,100.00
2023-01-17T00:04:48.419Z,100.00
2023-01-17T00:07:35.735Z,100.00
2023-01-17T00:10:07.390Z,100.00
2023-01-17T00:12:34.790Z,100.00
2023-01-17T00:15:01.468Z,100.00
2023-01-17T00:17:30.016Z,100.00
2023-01-17T00:20:17.716Z,100.00
2023-01-17T00:23:03.469Z,100.00
2023-01-17T00:25:52.909Z,100.00
2023-01-17T00:28:19.902Z,100.00
2023-01-17T00:30:46.925Z,100.00
2023-01-17T00:33:13.701Z,100.00
2023-01-17T00:35:40.656Z,100.00
2023-01-17T00:38:18.948Z,100.00
2023-01-17T00:40:46.844Z,100.00
2023-01-17T00:43:33.936Z,100.00
2023-01-17T00:46:19.685Z,100.00
2023-01-17T00:49:05.002Z,100.00
2023-01-17T00:51:51.763Z,100.00
2023-01-17T00:54:37.749Z,100.00
2023-01-17T00:57:23.561Z,100.00
2023-01-17T01:00:08.879Z,100.00
2023-01-17T01:02:55.102Z,100.00
2023-01-17T01:05:40.941Z,100.00
2023-01-17T01:08:41.745Z,100.00
2023-01-17T01:11:30.510Z,100.00
2023-01-17T01:14:15.813Z,100.00
2023-01-17T01:17:00.729Z,100.00
2023-01-17T01:19:46.158Z,100.00
2023-01-17T01:22:31.638Z,100.00
2023-01-17T01:25:16.927Z,100.00
2023-01-17T01:28:02.624Z,100.00
2023-01-17T01:30:48.132Z,100.00
2023-01-17T01:33:21.510Z,100.00
2023-01-17T01:35:54.097Z,100.00
2023-01-17T01:38:23.354Z,100.00
2023-01-17T01:40:55.613Z,100.00
2023-01-17T01:43:42.720Z,100.00
2023-01-17T01:46:13.845Z,100.00
2023-01-17T01:48:46.604Z,100.00
2023-01-17T01:51:19.557Z,100.00
2023-01-17T01:53:49.255Z,100.00
2023-01-17T01:56:16.425Z,100.00
2023-01-17T01:58:46.851Z,100.00
2023-01-17T02:01:14.804Z,100.00
2023-01-17T02:03:42.431Z,100.00
2023-01-17T02:06:24.814Z,100.00
2023-01-17T02:08:52.027Z,100.00
2023-01-17T02:11:18.837Z,100.00
2023-01-17T02:13:45.468Z,100.00
2023-01-17T02:16:20.739Z,100.00
2023-01-17T02:19:10.805Z,100.00
2023-01-17T02:21:37.286Z,100.00
2023-01-17T02:24:43.298Z,100.00
2023-01-17T02:27:49.069Z,100.00
2023-01-17T02:30:27.193Z,100.00
2023-01-17T02:33:03.582Z,100.00
2023-01-17T02:35:45.888Z,100.00
2023-01-17T02:38:21.568Z,100.00
2023-01-17T02:40:53.308Z,100.00
2023-01-17T02:43:22.461Z,100.00
2023-01-17T02:45:49.062Z,100.00
2023-01-17T02:48:20.194Z,100.00
2023-01-17T02:51:08.971Z,100.00
2023-01-17T02:53:38.469Z,100.00
2023-01-17T02:56:10.689Z,100.00
2023-01-17T02:59:06.424Z,100.00
2023-01-17T03:01:45.489Z,100.00
2023-01-17T03:04:34.947Z,100.00
2023-01-17T03:07:07.759Z,100.00
2023-01-17T03:09:34.668Z,100.00
2023-01-17T03:12:01.356Z,100.00
2023-01-17T03:14:30.982Z,100.00
2023-01-17T03:16:57.780Z,100.00
2023-01-17T03:19:24.466Z,100.00
2023-01-17T03:21:51.052Z,100.00
2023-01-17T03:24:17.611Z,100.00
2023-01-17T03:26:45.069Z,100.00
2023-01-17T03:29:11.770Z,100.00
2023-01-17T03:31:38.370Z,100.00
2023-01-17T03:34:04.958Z,100.00
2023-01-17T03:36:31.760Z,100.00
2023-01-17T03:38:58.387Z,100.00
2023-01-17T03:41:25.175Z,100.00
2023-01-17T03:43:51.828Z,100.00
2023-01-17T03:46:24.256Z,100.00
2023-01-17T03:48:51.782Z,100.00
2023-01-17T03:51:18.773Z,100.00
2023-01-17T03:53:47.043Z,100.00
2023-01-17T03:56:14.164Z,100.00
2023-01-17T03:58:40.737Z,100.00
2023-01-17T04:01:07.545Z,100.00
2023-01-17T04:03:34.357Z,100.00
2023-01-17T04:06:01.333Z,100.00
2023-01-17T04:08:27.909Z,100.00
2023-01-17T04:10:54.547Z,100.00
2023-01-17T04:13:21.087Z,100.00
2023-01-17T04:15:50.590Z,100.00
2023-01-17T04:18:19.361Z,100.00
2023-01-17T04:20:46.126Z,100.00
2023-01-17T04:23:12.820Z,100.00
2023-01-17T04:25:39.446Z,100.00
2023-01-17T04:28:06.290Z,100.00
2023-01-17T04:30:33.412Z,100.00
2023-01-17T04:33:00.044Z,100.00
2023-01-17T04:35:26.843Z,100.00
2023-01-17T04:37:53.417Z,100.00
2023-01-17T04:40:20.428Z,100.00
2023-01-17T04:42:47.934Z,100.00
2023-01-17T04:45:15.116Z,100.00
2023-01-17T04:47:41.812Z,100.00
2023-01-17T04:50:09.572Z,100.00
2023-01-17T04:52:36.205Z,100.00
2023-01-17T04:55:02.833Z,100.00
2023-01-17T04:57:29.514Z,100.00
2023-01-17T04:59:56.236Z,100.00
2023-01-17T05:02:22.915Z,100.00
2023-01-17T05:04:49.592Z,100.00
2023-01-17T05:07:16.192Z,100.00
2023-01-17T05:09:43.882Z,100.00
2023-01-17T05:12:10.575Z,100.00
2023-01-17T05:14:37.194Z,100.00
2023-01-17T05:17:03.749Z,100.00
2023-01-17T05:19:30.412Z,100.00
2023-01-17T05:22:03.847Z,100.00
2023-01-17T05:24:31.653Z,100.00
2023-01-17T05:27:03.087Z,100.00
2023-01-17T05:29:30.556Z,100.00
2023-01-17T05:31:57.451Z,100.00
2023-01-17T05:34:24.383Z,100.00
2023-01-17T05:36:51.165Z,100.00
2023-01-17T05:39:17.777Z,100.00
2023-01-17T05:41:44.564Z,100.00
2023-01-17T05:44:11.449Z,100.00
2023-01-17T05:46:38.373Z,100.00
2023-01-17T05:49:05.426Z,100.00
2023-01-17T05:51:32.125Z,100.00
2023-01-17T05:53:58.755Z,100.00
2023-01-17T05:56:25.389Z,100.00
2023-01-17T05:58:51.964Z,100.00
2023-01-17T06:01:19.524Z,100.00
2023-01-17T06:03:46.344Z,100.00
2023-01-17T06:06:13.333Z,100.00
2023-01-17T06:08:39.905Z,100.00
2023-01-17T06:11:06.498Z,100.00
2023-01-17T06:13:33.106Z,100.00
2023-01-17T06:16:03.010Z,100.00
2023-01-17T06:18:30.747Z,100.00
2023-01-17T06:20:57.785Z,100.00
2023-01-17T06:23:24.609Z,100.00
2023-01-17T06:25:51.689Z,100.00
2023-01-17T06:28:21.256Z,100.00
2023-01-17T06:30:48.335Z,100.00
2023-01-17T06:33:15.370Z,100.00
2023-01-17T06:35:52.795Z,100.00
2023-01-17T06:38:20.154Z,100.00
2023-01-17T06:40:47.006Z,100.00
2023-01-17T06:43:13.668Z,100.00
2023-01-17T06:45:40.283Z,100.00
2023-01-17T06:48:07.228Z,100.00
2023-01-17T06:50:34.184Z,100.00
2023-01-17T06:53:06.230Z,100.00
2023-01-17T06:55:34.651Z,100.00
2023-01-17T06:58:03.068Z,100.00
2023-01-17T07:00:31.116Z,99.42
2023-01-17T07:02:58.104Z,100.00
2023-01-17T07:05:24.984Z,100.00
2023-01-17T07:07:51.615Z,100.00
2023-01-17T07:10:18.324Z,100.00
2023-01-17T07:12:45.124Z,100.00
2023-01-17T07:15:12.017Z,100.00
2023-01-17T07:17:39.182Z,100.00
2023-01-17T07:20:06.978Z,100.00
2023-01-17T07:22:33.933Z,100.00
2023-01-17T07:25:00.560Z,100.00
2023-01-17T07:27:30.487Z,100.00
2023-01-17T07:29:59.188Z,100.00
2023-01-17T07:32:28.830Z,100.00
2023-01-17T07:34:59.081Z,100.00
2023-01-17T07:37:26.485Z,100.00
2023-01-17T07:39:53.843Z,100.00
2023-01-17T07:42:23.739Z,99.32
2023-01-17T07:44:50.784Z,98.02
2023-01-17T07:47:17.411Z,97.97
2023-01-17T07:49:44.038Z,98.11
2023-01-17T07:52:10.712Z,97.63
2023-01-17T07:54:37.425Z,96.36
2023-01-17T07:57:04.119Z,94.74
2023-01-17T07:59:30.744Z,95.06
2023-01-17T08:01:57.511Z,94.01
2023-01-17T08:04:27.323Z,93.37
2023-01-17T08:06:55.067Z,92.54
2023-01-17T08:09:21.942Z,92.08
2023-01-17T08:11:48.712Z,92.21
2023-01-17T08:14:15.273Z,91.40
2023-01-17T08:16:42.025Z,90.50
2023-01-17T08:19:08.827Z,86.74
2023-01-17T08:21:35.390Z,86.74
2023-01-17T08:24:02.002Z,87.06
2023-01-17T08:26:28.686Z,83.46
2023-01-17T08:29:02.768Z,84.78
2023-01-17T08:31:35.414Z,83.34
2023-01-17T08:34:02.195Z,83.72
2023-01-17T08:36:31.289Z,83.78
2023-01-17T08:38:58.731Z,84.24
2023-01-17T08:41:27.987Z,85.42
2023-01-17T08:43:54.682Z,87.00
2023-01-17T08:46:21.576Z,90.76
2023-01-17T08:48:48.139Z,92.68
2023-01-17T08:51:14.789Z,91.86
2023-01-17T08:53:41.981Z,90.89
2023-01-17T08:56:09.574Z,88.17
2023-01-17T08:58:36.230Z,88.30
2023-01-17T09:01:05.029Z,85.77
2023-01-17T09:03:33.120Z,84.74
2023-01-17T09:06:07.795Z,82.99
2023-01-17T09:08:34.850Z,82.27
2023-01-17T09:11:09.494Z,82.13
2023-01-17T09:13:36.885Z,81.12
2023-01-17T09:16:04.490Z,83.48
2023-01-17T09:18:32.417Z,83.07
2023-01-17T09:20:59.574Z,82.06
2023-01-17T09:23:28.035Z,82.87
2023-01-17T09:25:59.922Z,82.56
2023-01-17T09:28:27.912Z,82.79
2023-01-17T09:30:54.950Z,83.25
2023-01-17T09:33:23.198Z,83.82
2023-01-17T09:35:49.885Z,85.14
2023-01-17T09:38:17.136Z,85.05
2023-01-17T09:40:47.504Z,83.88
2023-01-17T09:43:49.614Z,82.01
2023-01-17T09:46:30.763Z,84.94
2023-01-17T09:49:08.369Z,83.81
2023-01-17T09:51:36.482Z,83.07
2023-01-17T09:54:03.298Z,86.86
2023-01-17T09:56:41.353Z,89.20
2023-01-17T09:59:35.494Z,89.13
2023-01-17T10:02:40.769Z,87.70
2023-01-17T10:05:26.081Z,90.90
2023-01-17T10:08:11.281Z,89.92
2023-01-17T10:10:51.087Z,87.96
2023-01-17T10:13:46.542Z,86.08
2023-01-17T10:16:28.233Z,84.93
2023-01-17T10:19:18.504Z,84.52
2023-01-17T10:21:59.222Z,82.69
2023-01-17T10:25:13.132Z,80.96
2023-01-17T10:27:58.360Z,80.70
2023-01-17T10:30:38.362Z,80.75
2023-01-17T10:33:29.132Z,81.14
2023-01-17T10:36:15.436Z,80.07
2023-01-17T10:38:47.914Z,79.24
2023-01-17T10:41:29.426Z,78.74
2023-01-17T10:44:39.521Z,78.78
2023-01-17T10:47:11.756Z,78.95
2023-01-17T10:49:59.505Z,78.61
2023-01-17T10:52:43.334Z,78.83
2023-01-17T10:55:12.977Z,78.09
2023-01-17T10:57:42.848Z,78.87
2023-01-17T11:00:44.144Z,78.71
2023-01-17T11:03:16.768Z,78.85
2023-01-17T11:05:44.325Z,78.03
2023-01-17T11:08:14.304Z,76.30
2023-01-17T11:10:48.868Z,77.03
2023-01-17T11:13:18.494Z,77.36
2023-01-17T11:15:53.324Z,77.23
2023-01-17T11:18:22.096Z,75.64
2023-01-17T11:20:49.826Z,75.60
2023-01-17T11:23:33.287Z,75.74
2023-01-17T11:26:07.601Z,76.21
2023-01-17T11:28:37.195Z,75.36
2023-01-17T11:31:09.201Z,75.10
2023-01-17T11:33:45.276Z,75.86
2023-01-17T11:36:30.094Z,76.24
2023-01-17T11:39:06.045Z,76.80
2023-01-17T11:41:42.219Z,77.57
2023-01-17T11:44:30.442Z,77.71
2023-01-17T11:47:12.028Z,77.72
2023-01-17T11:49:40.683Z,78.57
2023-01-17T11:52:16.700Z,79.13
2023-01-17T11:54:46.911Z,79.62
2023-01-17T11:57:43.051Z,79.93
2023-01-17T12:00:27.494Z,79.93
2023-01-17T12:03:18.923Z,80.28
2023-01-17T12:06:08.107Z,79.16
2023-01-17T12:09:08.442Z,79.44
2023-01-17T12:12:07.025Z,79.07
2023-01-17T12:15:07.666Z,80.19
2023-01-17T12:17:48.556Z,80.42
2023-01-17T12:20:34.311Z,80.73
2023-01-17T12:23:25.222Z,80.07
2023-01-17T12:26:09.626Z,80.05
2023-01-17T12:29:02.487Z,79.47
2023-01-17T12:31:33.511Z,78.84
2023-01-17T12:34:47.260Z,77.85
2023-01-17T12:37:22.964Z,78.55
2023-01-17T12:39:58.179Z,78.85
2023-01-17T12:42:31.023Z,78.68
2023-01-17T12:45:06.840Z,78.69
2023-01-17T12:47:37.880Z,79.34
2023-01-17T12:50:26.338Z,80.16
2023-01-17T12:53:10.036Z,81.02
2023-01-17T12:55:54.577Z,81.38
2023-01-17T12:58:24.813Z,81.70
2023-01-17T13:01:01.741Z,81.47
2023-01-17T13:04:05.884Z,81.06
2023-01-17T13:06:58.587Z,80.63
2023-01-17T13:09:28.360Z,80.04
2023-01-17T13:12:05.639Z,80.14
2023-01-17T13:14:32.907Z,79.91
2023-01-17T13:17:02.832Z,79.94
2023-01-17T13:19:42.057Z,81.91
2023-01-17T13:22:17.426Z,82.66
2023-01-17T13:25:42.002Z,83.29
2023-01-17T13:28:14.531Z,85.82
2023-01-17T13:31:02.834Z,86.05
2023-01-17T13:33:35.485Z,85.15
2023-01-17T13:36:30.328Z,84.66
2023-01-17T13:39:05.986Z,83.19
2023-01-17T13:41:44.741Z,83.58
2023-01-17T13:44:22.261Z,83.55
2023-01-17T13:47:01.021Z,83.32
2023-01-17T13:49:31.714Z,82.20
2023-01-17T13:52:19.389Z,82.73
2023-01-17T13:54:52.008Z,82.80
2023-01-17T13:57:32.897Z,82.70
2023-01-17T14:00:35.953Z,83.11
2023-01-17T14:03:02.914Z,83.45
2023-01-17T14:05:38.371Z,84.60
2023-01-17T14:08:27.345Z,84.68
2023-01-17T14:11:04.334Z,85.69
2023-01-17T14:13:39.466Z,85.34
2023-01-17T14:16:26.892Z,85.23
2023-01-17T14:18:55.168Z,86.03
2023-01-17T14:21:25.573Z,86.68
2023-01-17T14:24:06.389Z,88.41
2023-01-17T14:27:14.955Z,88.61
2023-01-17T14:29:58.930Z,88.53
2023-01-17T14:32:35.426Z,89.01
2023-01-17T14:35:02.849Z,88.79
2023-01-17T14:37:45.781Z,88.86
2023-01-17T14:40:21.369Z,88.98
2023-01-17T14:42:59.513Z,90.14
2023-01-17T14:45:29.158Z,89.86
2023-01-17T14:48:02.034Z,90.16
2023-01-17T14:50:36.403Z,90.85
2023-01-17T14:53:32.248Z,91.23
2023-01-17T14:56:13.191Z,92.05
2023-01-17T14:58:39.906Z,92.58
2023-01-17T15:01:13.858Z,92.66
2023-01-17T15:03:50.454Z,93.50
2023-01-17T15:06:24.978Z,93.91
2023-01-17T15:08:54.202Z,94.46
2023-01-17T15:11:26.144Z,95.18
2023-01-17T15:13:57.500Z,94.91
2023-01-17T15:16:30.904Z,96.14
2023-01-17T15:18:57.634Z,96.86
2023-01-17T15:21:30.075Z,97.70
2023-01-17T15:24:00.021Z,98.64
2023-01-17T15:26:30.027Z,98.65
2023-01-17T15:29:04.991Z,99.17
2023-01-17T15:31:40.466Z,100.00
2023-01-17T15:34:14.205Z,100.00
2023-01-17T15:36:40.922Z,100.00
2023-01-17T15:39:23.926Z,100.00
2023-01-17T15:41:55.403Z,100.00
2023-01-17T15:44:46.798Z,100.00
2023-01-17T15:47:30.454Z,100.00
2023-01-17T15:49:57.684Z,100.00
2023-01-17T15:52:24.256Z,100.00
2023-01-17T15:54:55.474Z,100.00
2023-01-17T15:57:38.314Z,100.00
2023-01-17T16:00:18.379Z,100.00
2023-01-17T16:02:46.957Z,100.00
2023-01-17T16:05:27.722Z,100.00
2023-01-17T16:08:25.523Z,100.00
2023-01-17T16:10:59.206Z,100.00
2023-01-17T16:13:25.767Z,100.00
2023-01-17T16:15:52.571Z,100.00
2023-01-17T16:18:24.045Z,100.00
2023-01-17T16:20:59.802Z,100.00
2023-01-17T16:23:27.889Z,100.00
2023-01-17T16:25:54.464Z,100.00
2023-01-17T16:28:21.132Z,100.00
2023-01-17T16:30:48.975Z,100.00
2023-01-17T16:33:16.048Z,100.00
2023-01-17T16:35:43.060Z,100.00
2023-01-17T16:38:15.710Z,100.00
2023-01-17T16:40:44.490Z,100.00
2023-01-17T16:43:12.298Z,100.00
2023-01-17T16:45:41.386Z,100.00
2023-01-17T16:48:08.809Z,100.00
2023-01-17T16:50:35.434Z,100.00
2023-01-17T16:53:02.054Z,100.00
2023-01-17T16:55:28.612Z,100.00
2023-01-17T16:57:58.172Z,100.00
2023-01-17T17:00:26.936Z,100.00
2023-01-17T17:02:54.116Z,100.00
2023-01-17T17:05:20.901Z,100.00
2023-01-17T17:07:50.767Z,100.00
2023-01-17T17:10:20.441Z,100.00
2023-01-17T17:12:47.073Z,100.00
2023-01-17T17:15:14.347Z,100.00
2023-01-17T17:17:43.125Z,100.00
2023-01-17T17:20:13.356Z,100.00
2023-01-17T17:22:43.015Z,100.00
2023-01-17T17:25:11.722Z,100.00
2023-01-17T17:27:38.709Z,100.00
2023-01-17T17:30:06.368Z,100.00
2023-01-17T17:32:33.050Z,100.00
2023-01-17T17:34:59.957Z,100.00
2023-01-17T17:37:29.121Z,100.00
2023-01-17T17:39:56.495Z,100.00
2023-01-17T17:42:23.355Z,100.00
2023-01-17T17:44:49.953Z,100.00
2023-01-17T17:47:16.673Z,100.00
2023-01-17T17:49:43.627Z,100.00
2023-01-17T17:52:10.324Z,100.00
2023-01-17T17:54:37.195Z,100.00
2023-01-17T17:57:03.977Z,100.00
2023-01-17T17:59:31.281Z,100.00
2023-01-17T18:02:00.095Z,100.00
2023-01-17T18:04:27.141Z,100.00
2023-01-17T18:06:57.875Z,100.00
2023-01-17T18:09:24.836Z,100.00
2023-01-17T18:11:51.668Z,100.00
2023-01-17T18:14:21.266Z,100.00
2023-01-17T18:16:48.485Z,100.00
2023-01-17T18:19:20.641Z,100.00
2023-01-17T18:21:48.890Z,100.00
2023-01-17T18:24:17.467Z,100.00
2023-01-17T18:26:46.976Z,100.00
2023-01-17T18:29:16.027Z,100.00
2023-01-17T18:31:44.508Z,100.00
2023-01-17T18:34:14.562Z,100.00
2023-01-17T18:36:42.047Z,100.00
2023-01-17T18:39:17.657Z,100.00
2023-01-17T18:41:44.462Z,100.00
2023-01-17T18:44:12.075Z,100.00
2023-01-17T18:46:40.436Z,100.00
2023-01-17T18:49:07.272Z,100.00
2023-01-17T18:51:34.987Z,100.00
2023-01-17T18:54:05.851Z,100.00
2023-01-17T18:56:36.715Z,100.00
2023-01-17T18:59:05.985Z,100.00
2023-01-17T19:01:35.893Z,100.00
2023-01-17T19:04:05.013Z,100.00
2023-01-17T19:06:34.924Z,100.00
2023-01-17T19:09:02.815Z,100.00
2023-01-17T19:11:29.649Z,100.00
2023-01-17T19:13:57.008Z,100.00
2023-01-17T19:16:29.785Z,100.00
2023-01-17T19:19:01.662Z,100.00
2023-01-17T19:21:29.865Z,100.00
2023-01-17T19:23:57.459Z,100.00
2023-01-17T19:26:26.624Z,100.00
2023-01-17T19:28:56.050Z,100.00
2023-01-17T19:31:25.492Z,100.00
2023-01-17T19:34:00.290Z,100.00
2023-01-17T19:36:32.009Z,100.00
2023-01-17T19:39:04.804Z,100.00
2023-01-17T19:41:37.180Z,100.00
2023-01-17T19:44:08.431Z,100.00
2023-01-17T19:46:36.711Z,100.00
2023-01-17T19:49:06.377Z,100.00
2023-01-17T19:51:33.330Z,100.00
2023-01-17T19:54:01.957Z,100.00
2023-01-17T19:56:29.632Z,100.00
2023-01-17T19:59:01.226Z,100.00
2023-01-17T20:01:31.159Z,100.00
2023-01-17T20:03:59.181Z,100.00
2023-01-17T20:06:29.198Z,100.00
2023-01-17T20:08:56.606Z,100.00
2023-01-17T20:11:25.147Z,100.00
2023-01-17T20:13:54.371Z,100.00
2023-01-17T20:16:22.169Z,100.00
2023-01-17T20:18:49.429Z,100.00
2023-01-17T20:21:21.207Z,100.00
2023-01-17T20:23:50.188Z,100.00
2023-01-17T20:26:21.994Z,100.00
2023-01-17T20:28:51.964Z,100.00
2023-01-17T20:31:24.151Z,100.00
2023-01-17T20:33:53.276Z,100.00
2023-01-17T20:36:23.159Z,100.00
2023-01-17T20:38:50.567Z,100.00
2023-01-17T20:41:24.550Z,100.00
2023-01-17T20:43:54.433Z,100.00
2023-01-17T20:46:22.579Z,100.00
2023-01-17T20:48:51.591Z,100.00
2023-01-17T20:51:19.569Z,100.00
2023-01-17T20:53:50.504Z,100.00
2023-01-17T20:56:18.132Z,100.00
2023-01-17T20:58:45.126Z,100.00
2023-01-17T21:01:13.696Z,100.00
2023-01-17T21:03:40.467Z,100.00
2023-01-17T21:06:10.201Z,100.00
2023-01-17T21:08:38.768Z,100.00
2023-01-17T21:11:06.327Z,100.00
2023-01-17T21:13:33.339Z,100.00
2023-01-17T21:16:00.508Z,100.00
2023-01-17T21:18:31.866Z,100.00
2023-01-17T21:21:12.527Z,100.00
2023-01-17T21:23:41.270Z,100.00
2023-01-17T21:26:10.621Z,100.00
2023-01-17T21:28:39.068Z,100.00
2023-01-17T21:31:25.851Z,100.00
2023-01-17T21:34:01.260Z,100.00
2023-01-17T21:36:32.578Z,100.00
2023-01-17T21:39:04.278Z,100.00
2023-01-17T21:41:33.837Z,100.00
2023-01-17T21:44:02.967Z,100.00
2023-01-17T21:46:30.541Z,100.00
2023-01-17T21:48:57.724Z,100.00
2023-01-17T21:51:45.324Z,100.00
2023-01-17T21:54:11.982Z,100.00
2023-01-17T21:56:57.087Z,100.00
2023-01-17T21:59:23.696Z,100.00
2023-01-17T22:01:50.297Z,100.00
2023-01-17T22:04:16.894Z,100.00
2023-01-17T22:06:43.489Z,100.00
2023-01-17T22:09:10.101Z,100.00
2023-01-17T22:11:37.105Z,100.00
2023-01-17T22:14:04.548Z,100.00
2023-01-17T22:16:31.128Z,100.00
2023-01-17T22:18:58.583Z,100.00
2023-01-17T22:21:28.222Z,100.00
2023-01-17T22:23:59.447Z,100.00
2023-01-17T22:26:28.832Z,100.00
2023-01-17T22:28:55.695Z,100.00
2023-01-17T22:31:27.488Z,100.00
2023-01-17T22:33:59.512Z,100.00
2023-01-17T22:36:26.786Z,100.00
2023-01-17T22:38:53.463Z,100.00
2023-01-17T22:41:23.279Z,100.00
2023-01-17T22:43:52.120Z,100.00
2023-01-17T22:46:25.286Z,100.00
2023-01-17T22:48:52.809Z,100.00
2023-01-17T22:51:21.047Z,100.00
2023-01-17T22:53:53.205Z,100.00
2023-01-17T22:56:22.134Z,100.00
2023-01-17T22:58:49.655Z,100.00
2023-01-17T23:01:19.309Z,100.00
2023-01-17T23:03:47.095Z,100.00
2023-01-17T23:06:22.522Z,100.00
2023-01-17T23:08:51.546Z,100.00
2023-01-17T23:11:40.540Z,100.00
2023-01-17T23:14:19.351Z,100.00
2023-01-17T23:17:18.458Z,100.00
2023-01-17T23:19:52.844Z,100.00
2023-01-17T23:22:26.796Z,100.00
2023-01-17T23:24:54.544Z,100.00
2023-01-17T23:27:45.971Z,100.00
2023-01-17T23:30:19.030Z,100.00
2023-01-17T23:32:48.116Z,100.00
2023-01-17T23:35:15.921Z,100.00
2023-01-17T23:38:01.511Z,100.00
2023-01-17T23:40:28.310Z,100.00
2023-01-17T23:43:13.551Z,100.00
2023-01-17T23:45:40.257Z,100.00
2023-01-17T23:48:09.838Z,100.00
2023-01-17T23:50:41.764Z,100.00
2023-01-17T23:53:09.708Z,100.00
2023-01-17T23:55:41.187Z,100.00
2023-01-17T23:58:10.768Z,100.00
